sensor_id;sensor_type;location;lat;lon;timestamp;P1;durP1;ratioP1;P2;durP2;ratioP2
43823;SDS011;29470;53.550;9.926;2024-01-15T00:03:44;7.03;;;1.90;;
43823;SDS011;29470;53.550;9.926;2024-01-15T00:08:48;9.38;;;1.35;;
43823;SDS011;29470;53.550;9.926;2024-01-15T00:13:51;7.00;;;1.33;;
43823;SDS011;29470;53.550;9.926;2024-01-15T00:18:55;4.68;;;1.60;;
43823;SDS011;29470;53.550;9.926;2024-01-15T00:23:58;8.85;;;1.90;;
43823;SDS011;29470;53.550;9.926;2024-01-15T00:29:01;8.60;;;1.98;;
43823;SDS011;29470;53.550;9.926;2024-01-15T00:34:06;12.02;;;1.67;;
43823;SDS011;29470;53.550;9.926;2024-01-15T00:39:09;7.38;;;1.42;;
43823;SDS011;29470;53.550;9.926;2024-01-15T00:44:12;9.57;;;1.50;;
43823;SDS011;29470;53.550;9.926;2024-01-15T00:49:16;5.57;;;1.30;;
43823;SDS011;29470;53.550;9.926;2024-01-15T00:54:19;9.30;;;2.13;;
43823;SDS011;29470;53.550;9.926;2024-01-15T00:59:22;10.88;;;1.60;;
43823;SDS011;29470;53.550;9.926;2024-01-15T01:04:26;9.68;;;1.58;;
43823;SDS011;29470;53.550;9.926;2024-01-15T01:09:30;10.15;;;1.65;;
43823;SDS011;29470;53.550;9.926;2024-01-15T01:14:33;7.47;;;1.33;;
43823;SDS011;29470;53.550;9.926;2024-01-15T01:19:37;8.23;;;1.38;;
43823;SDS011;29470;53.550;9.926;2024-01-15T01:24:40;9.90;;;1.70;;
43823;SDS011;29470;53.550;9.926;2024-01-15T01:29:43;11.77;;;1.42;;
43823;SDS011;29470;53.550;9.926;2024-01-15T01:34:47;7.07;;;1.50;;
43823;SDS011;29470;53.550;9.926;2024-01-15T01:39:50;12.27;;;1.52;;
43823;SDS011;29470;53.550;9.926;2024-01-15T01:44:53;8.57;;;1.55;;
43823;SDS011;29470;53.550;9.926;2024-01-15T01:49:57;10.95;;;1.65;;
43823;SDS011;29470;53.550;9.926;2024-01-15T01:55:00;13.57;;;2.10;;
43823;SDS011;29470;53.550;9.926;2024-01-15T02:00:05;7.90;;;1.70;;
43823;SDS011;29470;53.550;9.926;2024-01-15T02:05:14;10.37;;;1.20;;
43823;SDS011;29470;53.550;9.926;2024-01-15T02:15:23;7.53;;;1.85;;
43823;SDS011;29470;53.550;9.926;2024-01-15T02:20:28;10.15;;;1.27;;
43823;SDS011;29470;53.550;9.926;2024-01-15T02:25:32;12.15;;;1.83;;
43823;SDS011;29470;53.550;9.926;2024-01-15T02:30:35;6.05;;;1.38;;
43823;SDS011;29470;53.550;9.926;2024-01-15T02:35:40;4.82;;;1.40;;
43823;SDS011;29470;53.550;9.926;2024-01-15T02:40:45;9.30;;;1.48;;
43823;SDS011;29470;53.550;9.926;2024-01-15T02:45:48;7.88;;;1.55;;
43823;SDS011;29470;53.550;9.926;2024-01-15T02:50:51;8.48;;;1.27;;
43823;SDS011;29470;53.550;9.926;2024-01-15T02:55:55;11.35;;;2.38;;
43823;SDS011;29470;53.550;9.926;2024-01-15T03:00:58;11.70;;;1.75;;
43823;SDS011;29470;53.550;9.926;2024-01-15T03:06:01;6.45;;;1.23;;
43823;SDS011;29470;53.550;9.926;2024-01-15T03:11:05;10.55;;;1.30;;
43823;SDS011;29470;53.550;9.926;2024-01-15T03:16:08;7.60;;;1.60;;
43823;SDS011;29470;53.550;9.926;2024-01-15T03:21:12;9.75;;;1.27;;
43823;SDS011;29470;53.550;9.926;2024-01-15T03:26:17;4.78;;;1.23;;
43823;SDS011;29470;53.550;9.926;2024-01-15T03:31:20;9.90;;;2.10;;
43823;SDS011;29470;53.550;9.926;2024-01-15T03:36:23;14.15;;;2.03;;
43823;SDS011;29470;53.550;9.926;2024-01-15T03:41:27;10.98;;;2.85;;
43823;SDS011;29470;53.550;9.926;2024-01-15T03:46:30;15.00;;;2.08;;
43823;SDS011;29470;53.550;9.926;2024-01-15T03:51:33;11.40;;;1.98;;
43823;SDS011;29470;53.550;9.926;2024-01-15T03:56:37;21.80;;;3.75;;
43823;SDS011;29470;53.550;9.926;2024-01-15T04:01:40;8.50;;;2.05;;
43823;SDS011;29470;53.550;9.926;2024-01-15T04:06:43;13.10;;;2.08;;
43823;SDS011;29470;53.550;9.926;2024-01-15T04:11:48;13.68;;;2.45;;
43823;SDS011;29470;53.550;9.926;2024-01-15T04:16:51;23.00;;;2.83;;
43823;SDS011;29470;53.550;9.926;2024-01-15T04:21:54;18.45;;;2.58;;
43823;SDS011;29470;53.550;9.926;2024-01-15T04:26:58;15.45;;;2.53;;
43823;SDS011;29470;53.550;9.926;2024-01-15T04:32:01;16.73;;;2.55;;
43823;SDS011;29470;53.550;9.926;2024-01-15T04:37:04;17.17;;;2.55;;
43823;SDS011;29470;53.550;9.926;2024-01-15T04:42:08;14.80;;;3.47;;
43823;SDS011;29470;53.550;9.926;2024-01-15T04:47:11;16.25;;;2.50;;
43823;SDS011;29470;53.550;9.926;2024-01-15T04:52:14;15.20;;;2.72;;
43823;SDS011;29470;53.550;9.926;2024-01-15T04:57:18;11.88;;;2.10;;
43823;SDS011;29470;53.550;9.926;2024-01-15T05:02:21;10.50;;;2.40;;
43823;SDS011;29470;53.550;9.926;2024-01-15T05:07:23;14.65;;;1.98;;
43823;SDS011;29470;53.550;9.926;2024-01-15T05:12:28;11.68;;;1.92;;
43823;SDS011;29470;53.550;9.926;2024-01-15T05:17:31;12.23;;;2.22;;
43823;SDS011;29470;53.550;9.926;2024-01-15T05:22:33;15.73;;;2.80;;
43823;SDS011;29470;53.550;9.926;2024-01-15T05:27:38;16.15;;;2.40;;
43823;SDS011;29470;53.550;9.926;2024-01-15T05:32:41;16.17;;;2.72;;
43823;SDS011;29470;53.550;9.926;2024-01-15T05:37:44;11.07;;;2.65;;
43823;SDS011;29470;53.550;9.926;2024-01-15T05:42:49;16.35;;;3.08;;
43823;SDS011;29470;53.550;9.926;2024-01-15T05:47:52;15.07;;;2.45;;
43823;SDS011;29470;53.550;9.926;2024-01-15T05:52:55;13.65;;;1.85;;
43823;SDS011;29470;53.550;9.926;2024-01-15T05:58:00;12.77;;;1.90;;
43823;SDS011;29470;53.550;9.926;2024-01-15T06:03:02;10.35;;;2.17;;
43823;SDS011;29470;53.550;9.926;2024-01-15T06:08:06;13.65;;;2.15;;
43823;SDS011;29470;53.550;9.926;2024-01-15T06:13:10;13.23;;;2.47;;
43823;SDS011;29470;53.550;9.926;2024-01-15T06:18:13;12.98;;;2.53;;
43823;SDS011;29470;53.550;9.926;2024-01-15T06:23:16;21.65;;;2.75;;
43823;SDS011;29470;53.550;9.926;2024-01-15T06:28:23;18.27;;;2.63;;
43823;SDS011;29470;53.550;9.926;2024-01-15T06:33:26;11.88;;;3.10;;
43823;SDS011;29470;53.550;9.926;2024-01-15T06:38:29;13.18;;;1.92;;
43823;SDS011;29470;53.550;9.926;2024-01-15T06:43:33;10.50;;;1.88;;
43823;SDS011;29470;53.550;9.926;2024-01-15T06:48:36;13.18;;;2.72;;
43823;SDS011;29470;53.550;9.926;2024-01-15T06:53:39;13.00;;;3.00;;
43823;SDS011;29470;53.550;9.926;2024-01-15T06:58:43;10.63;;;2.00;;
43823;SDS011;29470;53.550;9.926;2024-01-15T07:03:46;13.85;;;1.70;;
43823;SDS011;29470;53.550;9.926;2024-01-15T07:08:49;6.90;;;1.77;;
43823;SDS011;29470;53.550;9.926;2024-01-15T07:13:53;9.80;;;2.22;;
43823;SDS011;29470;53.550;9.926;2024-01-15T07:18:56;13.07;;;2.70;;
43823;SDS011;29470;53.550;9.926;2024-01-15T07:24:00;12.00;;;2.95;;
43823;SDS011;29470;53.550;9.926;2024-01-15T07:29:04;9.35;;;1.83;;
43823;SDS011;29470;53.550;9.926;2024-01-15T07:34:07;11.70;;;1.58;;
43823;SDS011;29470;53.550;9.926;2024-01-15T07:39:10;8.80;;;1.50;;
43823;SDS011;29470;53.550;9.926;2024-01-15T07:44:14;7.82;;;1.30;;
43823;SDS011;29470;53.550;9.926;2024-01-15T07:49:17;5.97;;;1.30;;
43823;SDS011;29470;53.550;9.926;2024-01-15T07:54:20;6.72;;;1.40;;
43823;SDS011;29470;53.550;9.926;2024-01-15T07:59:25;9.13;;;1.25;;
43823;SDS011;29470;53.550;9.926;2024-01-15T08:04:28;6.88;;;1.65;;
43823;SDS011;29470;53.550;9.926;2024-01-15T08:09:31;11.27;;;2.20;;
43823;SDS011;29470;53.550;9.926;2024-01-15T08:14:35;8.00;;;1.77;;
43823;SDS011;29470;53.550;9.926;2024-01-15T08:19:39;8.52;;;1.65;;
43823;SDS011;29470;53.550;9.926;2024-01-15T08:24:43;10.82;;;1.77;;
43823;SDS011;29470;53.550;9.926;2024-01-15T08:29:48;11.70;;;1.70;;
43823;SDS011;29470;53.550;9.926;2024-01-15T08:34:51;10.00;;;1.30;;
43823;SDS011;29470;53.550;9.926;2024-01-15T08:39:54;7.75;;;1.55;;
43823;SDS011;29470;53.550;9.926;2024-01-15T08:44:58;5.57;;;1.13;;
43823;SDS011;29470;53.550;9.926;2024-01-15T08:50:03;7.20;;;1.40;;
43823;SDS011;29470;53.550;9.926;2024-01-15T08:55:07;6.80;;;1.40;;
43823;SDS011;29470;53.550;9.926;2024-01-15T09:00:12;9.73;;;1.27;;
43823;SDS011;29470;53.550;9.926;2024-01-15T09:05:16;8.18;;;1.58;;
43823;SDS011;29470;53.550;9.926;2024-01-15T09:10:19;11.98;;;1.60;;
43823;SDS011;29470;53.550;9.926;2024-01-15T09:15:23;8.10;;;2.13;;
43823;SDS011;29470;53.550;9.926;2024-01-15T09:20:26;5.95;;;1.40;;
43823;SDS011;29470;53.550;9.926;2024-01-15T09:25:29;6.47;;;1.67;;
43823;SDS011;29470;53.550;9.926;2024-01-15T09:30:34;7.22;;;1.60;;
43823;SDS011;29470;53.550;9.926;2024-01-15T09:35:37;8.50;;;1.55;;
43823;SDS011;29470;53.550;9.926;2024-01-15T09:40:40;7.47;;;1.58;;
43823;SDS011;29470;53.550;9.926;2024-01-15T09:45:49;9.38;;;1.70;;
43823;SDS011;29470;53.550;9.926;2024-01-15T09:50:52;7.70;;;1.42;;
43823;SDS011;29470;53.550;9.926;2024-01-15T09:55:56;7.53;;;2.55;;
43823;SDS011;29470;53.550;9.926;2024-01-15T10:01:00;7.72;;;1.58;;
43823;SDS011;29470;53.550;9.926;2024-01-15T10:06:09;11.52;;;2.13;;
43823;SDS011;29470;53.550;9.926;2024-01-15T10:11:14;4.00;;;1.20;;
43823;SDS011;29470;53.550;9.926;2024-01-15T10:16:19;5.30;;;1.23;;
43823;SDS011;29470;53.550;9.926;2024-01-15T10:21:23;4.20;;;1.25;;
43823;SDS011;29470;53.550;9.926;2024-01-15T10:26:28;5.18;;;1.40;;
43823;SDS011;29470;53.550;9.926;2024-01-15T10:31:33;6.07;;;1.70;;
43823;SDS011;29470;53.550;9.926;2024-01-15T10:36:36;8.02;;;1.45;;
43823;SDS011;29470;53.550;9.926;2024-01-15T10:41:42;5.97;;;1.75;;
43823;SDS011;29470;53.550;9.926;2024-01-15T10:46:47;4.55;;;1.10;;
43823;SDS011;29470;53.550;9.926;2024-01-15T10:51:54;3.30;;;1.00;;
43823;SDS011;29470;53.550;9.926;2024-01-15T10:56:58;4.75;;;1.10;;
43823;SDS011;29470;53.550;9.926;2024-01-15T11:02:02;4.00;;;1.38;;
43823;SDS011;29470;53.550;9.926;2024-01-15T11:07:09;3.58;;;1.08;;
43823;SDS011;29470;53.550;9.926;2024-01-15T11:12:13;2.75;;;0.90;;
43823;SDS011;29470;53.550;9.926;2024-01-15T11:17:18;2.95;;;0.73;;
43823;SDS011;29470;53.550;9.926;2024-01-15T11:27:50;3.40;;;1.08;;
43823;SDS011;29470;53.550;9.926;2024-01-15T11:32:58;3.00;;;1.30;;
43823;SDS011;29470;53.550;9.926;2024-01-15T11:38:01;2.42;;;1.33;;
43823;SDS011;29470;53.550;9.926;2024-01-15T11:43:04;2.03;;;1.00;;
43823;SDS011;29470;53.550;9.926;2024-01-15T11:48:13;3.08;;;0.93;;
43823;SDS011;29470;53.550;9.926;2024-01-15T11:53:21;3.63;;;1.08;;
43823;SDS011;29470;53.550;9.926;2024-01-15T11:58:30;2.35;;;1.10;;
43823;SDS011;29470;53.550;9.926;2024-01-15T12:03:34;2.47;;;1.00;;
43823;SDS011;29470;53.550;9.926;2024-01-15T12:08:37;2.30;;;1.23;;
43823;SDS011;29470;53.550;9.926;2024-01-15T12:13:40;2.58;;;0.90;;
43823;SDS011;29470;53.550;9.926;2024-01-15T12:18:47;3.95;;;1.08;;
43823;SDS011;29470;53.550;9.926;2024-01-15T12:23:50;1.95;;;0.80;;
43823;SDS011;29470;53.550;9.926;2024-01-15T12:28:54;2.60;;;1.00;;
43823;SDS011;29470;53.550;9.926;2024-01-15T12:34:01;2.70;;;1.00;;
43823;SDS011;29470;53.550;9.926;2024-01-15T12:39:04;1.70;;;1.13;;
43823;SDS011;29470;53.550;9.926;2024-01-15T12:44:06;4.18;;;1.30;;
43823;SDS011;29470;53.550;9.926;2024-01-15T12:49:11;1.80;;;1.17;;
43823;SDS011;29470;53.550;9.926;2024-01-15T12:54:15;3.35;;;1.48;;
43823;SDS011;29470;53.550;9.926;2024-01-15T12:59:18;2.30;;;1.20;;
43823;SDS011;29470;53.550;9.926;2024-01-15T13:04:23;3.25;;;1.33;;
43823;SDS011;29470;53.550;9.926;2024-01-15T13:09:27;2.60;;;1.50;;
43823;SDS011;29470;53.550;9.926;2024-01-15T13:14:32;4.13;;;1.70;;
43823;SDS011;29470;53.550;9.926;2024-01-15T13:19:36;8.05;;;3.55;;
43823;SDS011;29470;53.550;9.926;2024-01-15T13:24:39;4.88;;;2.30;;
43823;SDS011;29470;53.550;9.926;2024-01-15T13:29:42;3.72;;;1.88;;
43823;SDS011;29470;53.550;9.926;2024-01-15T13:34:47;6.10;;;2.58;;
43823;SDS011;29470;53.550;9.926;2024-01-15T13:39:50;3.80;;;1.90;;
43823;SDS011;29470;53.550;9.926;2024-01-15T13:44:56;3.00;;;1.80;;
43823;SDS011;29470;53.550;9.926;2024-01-15T13:50:00;5.40;;;2.17;;
43823;SDS011;29470;53.550;9.926;2024-01-15T13:55:03;3.50;;;1.92;;
43823;SDS011;29470;53.550;9.926;2024-01-15T14:00:08;3.63;;;1.98;;
43823;SDS011;29470;53.550;9.926;2024-01-15T14:05:15;6.78;;;2.08;;
43823;SDS011;29470;53.550;9.926;2024-01-15T14:10:18;5.38;;;1.77;;
43823;SDS011;29470;53.550;9.926;2024-01-15T14:15:21;2.63;;;1.60;;
43823;SDS011;29470;53.550;9.926;2024-01-15T14:20:26;4.25;;;1.90;;
43823;SDS011;29470;53.550;9.926;2024-01-15T14:25:29;2.63;;;1.70;;
43823;SDS011;29470;53.550;9.926;2024-01-15T14:30:31;4.28;;;2.40;;
43823;SDS011;29470;53.550;9.926;2024-01-15T14:35:36;5.75;;;2.42;;
43823;SDS011;29470;53.550;9.926;2024-01-15T14:40:39;7.25;;;2.70;;
43823;SDS011;29470;53.550;9.926;2024-01-15T14:45:45;5.32;;;3.00;;
43823;SDS011;29470;53.550;9.926;2024-01-15T14:50:50;6.28;;;3.95;;
43823;SDS011;29470;53.550;9.926;2024-01-15T14:55:53;7.63;;;2.47;;
43823;SDS011;29470;53.550;9.926;2024-01-15T15:00:56;4.10;;;2.13;;
43823;SDS011;29470;53.550;9.926;2024-01-15T15:06:00;4.68;;;2.72;;
43823;SDS011;29470;53.550;9.926;2024-01-15T15:11:04;5.38;;;3.05;;
43823;SDS011;29470;53.550;9.926;2024-01-15T15:16:07;6.90;;;3.20;;
43823;SDS011;29470;53.550;9.926;2024-01-15T15:21:12;7.40;;;3.28;;
43823;SDS011;29470;53.550;9.926;2024-01-15T15:26:15;8.93;;;3.80;;
43823;SDS011;29470;53.550;9.926;2024-01-15T15:31:18;9.60;;;4.68;;
43823;SDS011;29470;53.550;9.926;2024-01-15T15:36:22;10.68;;;4.32;;
43823;SDS011;29470;53.550;9.926;2024-01-15T15:41:25;12.38;;;5.00;;
43823;SDS011;29470;53.550;9.926;2024-01-15T15:46:29;13.10;;;5.90;;
43823;SDS011;29470;53.550;9.926;2024-01-15T15:51:33;10.73;;;5.03;;
43823;SDS011;29470;53.550;9.926;2024-01-15T15:56:37;10.85;;;5.25;;
43823;SDS011;29470;53.550;9.926;2024-01-15T16:01:40;10.95;;;4.78;;
43823;SDS011;29470;53.550;9.926;2024-01-15T16:06:45;10.88;;;4.95;;
43823;SDS011;29470;53.550;9.926;2024-01-15T16:11:49;12.88;;;4.93;;
43823;SDS011;29470;53.550;9.926;2024-01-15T16:16:52;10.82;;;5.88;;
43823;SDS011;29470;53.550;9.926;2024-01-15T16:22:19;10.18;;;4.30;;
43823;SDS011;29470;53.550;9.926;2024-01-15T16:27:42;10.90;;;4.20;;
43823;SDS011;29470;53.550;9.926;2024-01-15T16:32:45;11.68;;;4.78;;
43823;SDS011;29470;53.550;9.926;2024-01-15T16:37:51;10.05;;;4.80;;
43823;SDS011;29470;53.550;9.926;2024-01-15T16:42:54;24.98;;;5.80;;
43823;SDS011;29470;53.550;9.926;2024-01-15T16:47:57;9.48;;;5.20;;
43823;SDS011;29470;53.550;9.926;2024-01-15T16:53:01;11.70;;;5.57;;
43823;SDS011;29470;53.550;9.926;2024-01-15T16:58:04;13.25;;;6.28;;
43823;SDS011;29470;53.550;9.926;2024-01-15T17:03:07;13.55;;;6.68;;
43823;SDS011;29470;53.550;9.926;2024-01-15T17:08:11;16.25;;;7.53;;
43823;SDS011;29470;53.550;9.926;2024-01-15T17:13:14;18.50;;;7.40;;
43823;SDS011;29470;53.550;9.926;2024-01-15T17:18:17;15.75;;;6.43;;
43823;SDS011;29470;53.550;9.926;2024-01-15T17:23:23;17.27;;;6.95;;
43823;SDS011;29470;53.550;9.926;2024-01-15T17:28:26;18.90;;;6.78;;
43823;SDS011;29470;53.550;9.926;2024-01-15T17:33:29;14.48;;;6.40;;
43823;SDS011;29470;53.550;9.926;2024-01-15T17:38:36;18.27;;;8.00;;
43823;SDS011;29470;53.550;9.926;2024-01-15T17:43:40;16.92;;;6.78;;
43823;SDS011;29470;53.550;9.926;2024-01-15T17:48:43;16.52;;;6.30;;
43823;SDS011;29470;53.550;9.926;2024-01-15T17:53:48;14.10;;;6.10;;
43823;SDS011;29470;53.550;9.926;2024-01-15T17:58:51;15.52;;;5.63;;
43823;SDS011;29470;53.550;9.926;2024-01-15T18:03:54;10.38;;;5.07;;
43823;SDS011;29470;53.550;9.926;2024-01-15T18:09:00;14.57;;;4.90;;
43823;SDS011;29470;53.550;9.926;2024-01-15T18:14:04;7.35;;;2.60;;
43823;SDS011;29470;53.550;9.926;2024-01-15T18:19:07;5.10;;;2.00;;
43823;SDS011;29470;53.550;9.926;2024-01-15T18:24:11;9.48;;;2.65;;
43823;SDS011;29470;53.550;9.926;2024-01-15T18:29:14;5.10;;;2.03;;
43823;SDS011;29470;53.550;9.926;2024-01-15T18:34:17;5.43;;;2.25;;
43823;SDS011;29470;53.550;9.926;2024-01-15T18:39:21;4.90;;;2.00;;
43823;SDS011;29470;53.550;9.926;2024-01-15T18:44:25;5.25;;;2.13;;
43823;SDS011;29470;53.550;9.926;2024-01-15T18:49:28;4.63;;;2.63;;
43823;SDS011;29470;53.550;9.926;2024-01-15T18:54:33;6.65;;;3.22;;
43823;SDS011;29470;53.550;9.926;2024-01-15T18:59:36;4.95;;;2.78;;
43823;SDS011;29470;53.550;9.926;2024-01-15T19:04:41;8.93;;;3.35;;
43823;SDS011;29470;53.550;9.926;2024-01-15T19:09:46;9.13;;;3.45;;
43823;SDS011;29470;53.550;9.926;2024-01-15T19:14:49;10.93;;;3.60;;
43823;SDS011;29470;53.550;9.926;2024-01-15T19:19:51;6.53;;;2.75;;
43823;SDS011;29470;53.550;9.926;2024-01-15T19:24:56;5.70;;;3.03;;
43823;SDS011;29470;53.550;9.926;2024-01-15T19:29:59;5.85;;;3.08;;
43823;SDS011;29470;53.550;9.926;2024-01-15T19:35:02;8.18;;;3.63;;
43823;SDS011;29470;53.550;9.926;2024-01-15T19:40:08;6.30;;;3.22;;
43823;SDS011;29470;53.550;9.926;2024-01-15T19:45:11;8.75;;;4.07;;
43823;SDS011;29470;53.550;9.926;2024-01-15T19:50:14;8.05;;;3.38;;
43823;SDS011;29470;53.550;9.926;2024-01-15T19:55:19;7.50;;;3.40;;
43823;SDS011;29470;53.550;9.926;2024-01-15T20:00:22;6.32;;;3.42;;
43823;SDS011;29470;53.550;9.926;2024-01-15T20:05:25;5.93;;;3.30;;
43823;SDS011;29470;53.550;9.926;2024-01-15T20:10:30;8.07;;;3.03;;
43823;SDS011;29470;53.550;9.926;2024-01-15T20:15:34;7.05;;;2.83;;
43823;SDS011;29470;53.550;9.926;2024-01-15T20:20:39;6.10;;;2.78;;
43823;SDS011;29470;53.550;9.926;2024-01-15T20:25:44;5.95;;;3.85;;
43823;SDS011;29470;53.550;9.926;2024-01-15T20:30:48;5.50;;;3.30;;
43823;SDS011;29470;53.550;9.926;2024-01-15T20:35:51;6.25;;;2.90;;
43823;SDS011;29470;53.550;9.926;2024-01-15T20:40:55;8.00;;;3.53;;
43823;SDS011;29470;53.550;9.926;2024-01-15T20:45:59;6.47;;;3.00;;
43823;SDS011;29470;53.550;9.926;2024-01-15T20:51:02;7.32;;;3.30;;
43823;SDS011;29470;53.550;9.926;2024-01-15T20:56:07;6.75;;;3.70;;
43823;SDS011;29470;53.550;9.926;2024-01-15T21:01:11;5.78;;;2.95;;
43823;SDS011;29470;53.550;9.926;2024-01-15T21:06:15;9.90;;;4.53;;
43823;SDS011;29470;53.550;9.926;2024-01-15T21:11:19;11.90;;;4.90;;
43823;SDS011;29470;53.550;9.926;2024-01-15T21:16:22;10.43;;;4.85;;
43823;SDS011;29470;53.550;9.926;2024-01-15T21:21:25;7.22;;;4.05;;
43823;SDS011;29470;53.550;9.926;2024-01-15T21:26:29;8.38;;;4.65;;
43823;SDS011;29470;53.550;9.926;2024-01-15T21:31:35;11.82;;;5.20;;
43823;SDS011;29470;53.550;9.926;2024-01-15T21:36:39;7.72;;;3.75;;
43823;SDS011;29470;53.550;9.926;2024-01-15T21:41:43;5.50;;;3.17;;
43823;SDS011;29470;53.550;9.926;2024-01-15T21:46:46;5.60;;;2.63;;
43823;SDS011;29470;53.550;9.926;2024-01-15T21:51:49;4.45;;;2.60;;
43823;SDS011;29470;53.550;9.926;2024-01-15T21:56:53;4.28;;;2.63;;
43823;SDS011;29470;53.550;9.926;2024-01-15T22:01:56;6.70;;;2.83;;
43823;SDS011;29470;53.550;9.926;2024-01-15T22:07:07;5.53;;;3.25;;
43823;SDS011;29470;53.550;9.926;2024-01-15T22:12:12;5.80;;;3.58;;
43823;SDS011;29470;53.550;9.926;2024-01-15T22:17:15;8.05;;;3.90;;
43823;SDS011;29470;53.550;9.926;2024-01-15T22:22:18;8.50;;;4.25;;
43823;SDS011;29470;53.550;9.926;2024-01-15T22:27:22;6.47;;;3.90;;
43823;SDS011;29470;53.550;9.926;2024-01-15T22:32:25;7.65;;;4.43;;
43823;SDS011;29470;53.550;9.926;2024-01-15T22:37:32;8.40;;;5.25;;
43823;SDS011;29470;53.550;9.926;2024-01-15T22:42:36;7.80;;;5.13;;
43823;SDS011;29470;53.550;9.926;2024-01-15T22:47:39;11.98;;;5.20;;
43823;SDS011;29470;53.550;9.926;2024-01-15T22:52:42;7.88;;;4.53;;
43823;SDS011;29470;53.550;9.926;2024-01-15T22:57:46;7.80;;;4.43;;
43823;SDS011;29470;53.550;9.926;2024-01-15T23:02:49;9.13;;;4.30;;
43823;SDS011;29470;53.550;9.926;2024-01-15T23:07:58;8.25;;;3.90;;
43823;SDS011;29470;53.550;9.926;2024-01-15T23:13:02;9.90;;;3.53;;
43823;SDS011;29470;53.550;9.926;2024-01-15T23:18:06;10.80;;;3.47;;
43823;SDS011;29470;53.550;9.926;2024-01-15T23:23:09;8.10;;;2.90;;
43823;SDS011;29470;53.550;9.926;2024-01-15T23:28:13;4.43;;;2.63;;
43823;SDS011;29470;53.550;9.926;2024-01-15T23:33:16;7.60;;;2.78;;
43823;SDS011;29470;53.550;9.926;2024-01-15T23:38:19;4.88;;;2.78;;
43823;SDS011;29470;53.550;9.926;2024-01-15T23:43:24;4.63;;;2.83;;
43823;SDS011;29470;53.550;9.926;2024-01-15T23:48:27;5.00;;;2.75;;
43823;SDS011;29470;53.550;9.926;2024-01-15T23:53:30;6.20;;;3.05;;
43823;SDS011;29470;53.550;9.926;2024-01-15T23:58:34;6.28;;;3.05;;
